createdAt,value
2019-03-24T00:00:38.392Z,1025.60
2019-03-24T00:01:41.408Z,1025.60
2019-03-24T00:02:38.521Z,1025.57
2019-03-24T00:03:38.589Z,1025.62
2019-03-24T00:04:38.657Z,1025.53
2019-03-24T00:05:38.706Z,1025.54
2019-03-24T00:06:38.770Z,1025.56
2019-03-24T00:07:38.828Z,1025.54
2019-03-24T00:08:38.900Z,1025.52
2019-03-24T00:09:38.961Z,1025.56
2019-03-24T00:10:39.017Z,1025.53
2019-03-24T00:11:39.077Z,1025.49
2019-03-24T00:12:39.143Z,1025.48
2019-03-24T00:13:39.542Z,1025.49
2019-03-24T00:14:39.265Z,1025.46
2019-03-24T00:15:39.325Z,1025.46
2019-03-24T00:16:39.389Z,1025.48
2019-03-24T00:17:39.449Z,1025.45
2019-03-24T00:18:39.509Z,1025.46
2019-03-24T00:19:39.585Z,1025.47
2019-03-24T00:20:39.642Z,1025.44
2019-03-24T00:21:39.697Z,1025.45
2019-03-24T00:22:39.765Z,1025.48
2019-03-24T00:23:39.817Z,1025.46
2019-03-24T00:24:39.893Z,1025.48
2019-03-24T00:25:40.010Z,1025.48
2019-03-24T00:26:40.009Z,1025.50
2019-03-24T00:27:40.069Z,1025.51
2019-03-24T00:28:40.133Z,1025.51
2019-03-24T00:29:40.214Z,1025.54
2019-03-24T00:30:40.258Z,1025.51
2019-03-24T00:31:40.319Z,1025.51
2019-03-24T00:32:40.382Z,1025.47
2019-03-24T00:33:40.442Z,1025.48
2019-03-24T00:34:40.514Z,1025.44
2019-03-24T00:35:40.576Z,1025.40
2019-03-24T00:36:40.630Z,1025.43
2019-03-24T00:37:40.686Z,1025.38
2019-03-24T00:38:40.770Z,1025.38
2019-03-24T00:39:40.822Z,1025.33
2019-03-24T00:40:40.893Z,1025.34
2019-03-24T00:41:40.969Z,1025.31
2019-03-24T00:42:41.002Z,1025.34
2019-03-24T00:43:41.062Z,1025.33
2019-03-24T00:44:41.230Z,1025.31
2019-03-24T00:45:41.188Z,1025.29
2019-03-24T00:46:41.250Z,1025.28
2019-03-24T00:47:41.311Z,1025.23
2019-03-24T00:48:41.370Z,1025.25
2019-03-24T00:49:41.443Z,1025.22
2019-03-24T00:50:41.506Z,1025.18
2019-03-24T00:51:41.564Z,1025.21
2019-03-24T00:52:41.626Z,1025.21
2019-03-24T00:53:41.683Z,1025.20
2019-03-24T00:54:41.752Z,1025.18
2019-03-24T00:55:41.815Z,1025.20
2019-03-24T00:56:41.869Z,1025.13
2019-03-24T00:57:41.930Z,1025.14
2019-03-24T00:58:41.996Z,1025.15
2019-03-24T00:59:42.064Z,1025.08
2019-03-24T01:00:42.124Z,1025.07
2019-03-24T01:01:42.179Z,1025.10
2019-03-24T01:02:42.239Z,1025.06
2019-03-24T01:03:42.315Z,1025.06
2019-03-24T01:04:42.375Z,1025.09
2019-03-24T01:05:42.444Z,1025.08
2019-03-24T01:06:42.491Z,1025.05
2019-03-24T01:07:42.551Z,1025.04
2019-03-24T01:08:42.612Z,1025.05
2019-03-24T01:09:42.683Z,1025.06
2019-03-24T01:10:42.743Z,1025.06
2019-03-24T01:11:42.801Z,1025.04
2019-03-24T01:12:42.867Z,1025.03
2019-03-24T01:13:42.926Z,1025.01
2019-03-24T01:14:42.992Z,1025.02
2019-03-24T01:15:47.610Z,1025.01
2019-03-24T01:16:43.110Z,1025.03
2019-03-24T01:17:43.173Z,1025.05
2019-03-24T01:18:43.232Z,1025.04
2019-03-24T01:19:43.312Z,1024.96
2019-03-24T01:20:43.356Z,1024.99
2019-03-24T01:21:43.416Z,1025.00
2019-03-24T01:22:43.480Z,1024.97
2019-03-24T01:23:43.540Z,1024.99
2019-03-24T01:24:43.612Z,1024.97
2019-03-24T01:25:43.672Z,1024.96
2019-03-24T01:26:43.729Z,1024.95
2019-03-24T01:27:43.788Z,1024.96
2019-03-24T01:28:43.850Z,1024.97
2019-03-24T01:29:43.924Z,1025.01
2019-03-24T01:30:43.981Z,1024.95
2019-03-24T01:31:44.042Z,1024.97
2019-03-24T01:32:44.097Z,1024.99
2019-03-24T01:33:44.161Z,1025.01
2019-03-24T01:34:44.237Z,1025.00
2019-03-24T01:35:44.285Z,1025.01
2019-03-24T01:36:44.389Z,1024.99
2019-03-24T01:37:44.408Z,1024.98
2019-03-24T01:38:44.469Z,1024.99
2019-03-24T01:39:44.542Z,1024.99
2019-03-24T01:40:44.601Z,1024.99
2019-03-24T01:41:44.660Z,1024.97
2019-03-24T01:42:44.717Z,1024.94
2019-03-24T01:43:44.773Z,1024.94
2019-03-24T01:44:44.849Z,1024.94
2019-03-24T01:45:44.911Z,1024.96
2019-03-24T01:46:44.971Z,1024.95
2019-03-24T01:47:45.025Z,1024.95
2019-03-24T01:48:45.089Z,1024.93
2019-03-24T01:49:45.150Z,1024.90
2019-03-24T01:50:45.553Z,1024.91
2019-03-24T01:51:45.274Z,1024.93
2019-03-24T01:52:45.338Z,1024.90
2019-03-24T01:53:45.394Z,1024.94
2019-03-24T01:54:45.458Z,1024.90
2019-03-24T01:55:45.529Z,1024.89
2019-03-24T01:56:45.678Z,1024.91
2019-03-24T01:57:45.695Z,1024.92
2019-03-24T01:58:45.706Z,1024.91
2019-03-24T01:59:45.766Z,1024.93
2019-03-24T02:00:45.830Z,1024.93
2019-03-24T02:01:45.898Z,1024.88
2019-03-24T02:02:45.962Z,1024.88
2019-03-24T02:03:46.019Z,1024.88
2019-03-24T02:04:46.078Z,1024.87
2019-03-24T02:05:46.141Z,1024.87
2019-03-24T02:06:46.290Z,1024.87
2019-03-24T02:07:46.263Z,1024.85
2019-03-24T02:08:46.322Z,1024.84
2019-03-24T02:09:46.386Z,1024.81
2019-03-24T02:10:46.453Z,1024.84
2019-03-24T02:11:46.515Z,1024.85
2019-03-24T02:12:46.579Z,1024.84
2019-03-24T02:13:46.634Z,1024.84
2019-03-24T02:14:46.695Z,1024.85
2019-03-24T02:15:46.755Z,1024.87
2019-03-24T02:16:46.828Z,1024.87
2019-03-24T02:17:46.887Z,1024.89
2019-03-24T02:18:46.947Z,1024.85
2019-03-24T02:19:47.004Z,1024.87
2019-03-24T02:20:47.073Z,1024.87
2019-03-24T02:21:47.152Z,1024.83
2019-03-24T02:22:47.193Z,1024.84
2019-03-24T02:23:47.255Z,1024.85
2019-03-24T02:24:47.316Z,1024.83
2019-03-24T02:25:47.379Z,1024.79
2019-03-24T02:26:47.442Z,1024.80
2019-03-24T02:27:47.505Z,1024.81
2019-03-24T02:28:47.557Z,1024.79
2019-03-24T02:29:47.623Z,1024.82
2019-03-24T02:30:47.684Z,1024.84
2019-03-24T02:31:47.752Z,1024.82
2019-03-24T02:32:47.817Z,1024.79
2019-03-24T02:33:47.873Z,1024.81
2019-03-24T02:34:47.934Z,1024.82
2019-03-24T02:35:47.992Z,1024.81
2019-03-24T02:36:48.064Z,1024.81
2019-03-24T02:37:48.215Z,1024.81
2019-03-24T02:38:48.186Z,1024.81
2019-03-24T02:39:48.241Z,1024.84
2019-03-24T02:40:48.304Z,1024.81
2019-03-24T02:41:48.365Z,1024.80
2019-03-24T02:42:48.432Z,1024.79
2019-03-24T02:43:48.513Z,1024.79
2019-03-24T02:44:48.549Z,1024.74
2019-03-24T02:45:48.613Z,1024.79
2019-03-24T02:46:48.673Z,1024.76
2019-03-24T02:47:48.747Z,1024.75
2019-03-24T02:48:48.805Z,1024.75
2019-03-24T02:49:48.867Z,1024.73
2019-03-24T02:50:48.921Z,1024.73
2019-03-24T02:51:48.985Z,1024.70
2019-03-24T02:52:49.047Z,1024.69
2019-03-24T02:53:49.136Z,1024.68
2019-03-24T02:54:49.169Z,1024.70
2019-03-24T02:55:49.232Z,1024.68
2019-03-24T02:56:49.292Z,1024.66
2019-03-24T02:57:49.361Z,1024.71
2019-03-24T02:58:49.476Z,1024.69
2019-03-24T02:59:49.499Z,1024.68
2019-03-24T03:00:49.561Z,1024.69
2019-03-24T03:01:49.606Z,1024.69
2019-03-24T03:02:49.669Z,1024.68
2019-03-24T03:03:49.753Z,1024.72
2019-03-24T03:04:49.800Z,1024.69
2019-03-24T03:05:49.851Z,1024.70
2019-03-24T03:06:49.919Z,1024.68
2019-03-24T03:07:49.976Z,1024.69
2019-03-24T03:08:50.066Z,1024.70
2019-03-24T03:09:50.106Z,1024.68
2019-03-24T03:10:50.163Z,1024.70
2019-03-24T03:11:50.222Z,1024.71
2019-03-24T03:12:50.286Z,1024.68
2019-03-24T03:13:50.366Z,1024.74
2019-03-24T03:14:50.418Z,1024.71
2019-03-24T03:15:50.471Z,1024.70
2019-03-24T03:16:50.536Z,1024.68
2019-03-24T03:17:50.595Z,1024.68
2019-03-24T03:18:50.682Z,1024.68
2019-03-24T03:19:53.550Z,1024.66
2019-03-24T03:20:50.779Z,1024.66
2019-03-24T03:21:50.842Z,1024.65
2019-03-24T03:22:50.903Z,1024.63
2019-03-24T03:23:50.978Z,1024.64
2019-03-24T03:24:51.036Z,1024.64
2019-03-24T03:25:51.092Z,1024.62
2019-03-24T03:26:51.151Z,1024.65
2019-03-24T03:27:51.220Z,1024.69
2019-03-24T03:28:51.440Z,1024.65
2019-03-24T03:29:51.356Z,1024.63
2019-03-24T03:30:51.601Z,1024.59
2019-03-24T03:31:51.468Z,1024.60
2019-03-24T03:32:51.541Z,1024.60
2019-03-24T03:33:51.606Z,1024.56
2019-03-24T03:34:51.656Z,1024.56
2019-03-24T03:35:51.713Z,1024.56
2019-03-24T03:36:51.774Z,1024.57
2019-03-24T03:37:51.843Z,1024.56
2019-03-24T03:38:51.917Z,1024.56
2019-03-24T03:39:57.319Z,1024.58
2019-03-24T03:40:52.045Z,1024.58
2019-03-24T03:41:52.081Z,1024.55
2019-03-24T03:42:52.156Z,1024.54
2019-03-24T03:43:52.205Z,1024.50
2019-03-24T03:44:52.280Z,1024.50
2019-03-24T03:45:52.329Z,1024.51
2019-03-24T03:46:53.412Z,1024.50
2019-03-24T03:47:52.459Z,1024.50
2019-03-24T03:48:52.532Z,1024.49
2019-03-24T03:49:52.585Z,1024.46
2019-03-24T03:50:52.643Z,1024.45
2019-03-24T03:51:52.696Z,1024.47
2019-03-24T03:52:52.763Z,1024.45
2019-03-24T03:53:52.828Z,1024.47
2019-03-24T03:54:52.892Z,1024.47
2019-03-24T03:55:52.954Z,1024.46
2019-03-24T03:56:53.008Z,1024.44
2019-03-24T03:57:53.069Z,1024.41
2019-03-24T03:58:53.143Z,1024.40
2019-03-24T03:59:53.307Z,1024.41
2019-03-24T04:00:53.257Z,1024.37
2019-03-24T04:01:53.317Z,1024.37
2019-03-24T04:02:53.377Z,1024.38
2019-03-24T04:03:53.457Z,1024.38
2019-03-24T04:04:53.511Z,1024.38
2019-03-24T04:05:53.575Z,1024.38
2019-03-24T04:06:53.625Z,1024.41
2019-03-24T04:07:53.691Z,1024.41
2019-03-24T04:08:53.761Z,1024.41
2019-03-24T04:09:53.818Z,1024.38
2019-03-24T04:10:53.882Z,1024.37
2019-03-24T04:11:53.932Z,1024.35
2019-03-24T04:12:53.997Z,1024.35
2019-03-24T04:13:54.065Z,1024.40
2019-03-24T04:14:54.214Z,1024.40
2019-03-24T04:15:54.186Z,1024.38
2019-03-24T04:17:06.230Z,1024.43
2019-03-24T04:17:54.307Z,1024.42
2019-03-24T04:18:54.371Z,1024.46
2019-03-24T04:19:54.439Z,1024.40
2019-03-24T04:20:54.497Z,1024.40
2019-03-24T04:21:54.558Z,1024.41
2019-03-24T04:22:54.614Z,1024.38
2019-03-24T04:23:54.682Z,1024.35
2019-03-24T04:24:54.746Z,1024.32
2019-03-24T04:25:54.810Z,1024.33
2019-03-24T04:26:54.862Z,1024.27
2019-03-24T04:27:54.931Z,1024.28
2019-03-24T04:28:54.992Z,1024.22
2019-03-24T04:29:55.059Z,1024.23
2019-03-24T04:30:55.119Z,1024.22
2019-03-24T04:31:55.170Z,1024.20
2019-03-24T04:32:55.238Z,1024.21
2019-03-24T04:33:55.294Z,1024.21
2019-03-24T04:34:55.362Z,1024.21
2019-03-24T04:35:55.426Z,1024.20
2019-03-24T04:36:55.478Z,1024.17
2019-03-24T04:37:55.567Z,1024.18
2019-03-24T04:38:55.615Z,1024.17
2019-03-24T04:39:55.674Z,1024.17
2019-03-24T04:40:55.734Z,1024.15
2019-03-24T04:41:55.790Z,1024.16
2019-03-24T04:42:55.851Z,1024.14
2019-03-24T04:43:55.929Z,1024.12
2019-03-24T04:44:55.982Z,1024.13
2019-03-24T04:45:56.043Z,1024.11
2019-03-24T04:46:56.099Z,1024.11
2019-03-24T04:47:56.158Z,1024.11
2019-03-24T04:48:56.234Z,1024.12
2019-03-24T04:49:56.323Z,1024.11
2019-03-24T04:50:56.346Z,1024.11
2019-03-24T04:51:56.407Z,1024.12
2019-03-24T04:52:56.467Z,1024.08
2019-03-24T04:53:56.532Z,1024.09
2019-03-24T04:54:56.599Z,1024.12
2019-03-24T04:55:56.659Z,1024.11
2019-03-24T04:56:56.715Z,1024.11
2019-03-24T04:57:56.779Z,1024.11
2019-03-24T04:58:56.839Z,1024.12
2019-03-24T04:59:56.911Z,1024.14
2019-03-24T05:00:56.977Z,1024.12
2019-03-24T05:01:57.024Z,1024.18
2019-03-24T05:02:57.087Z,1024.18
2019-03-24T05:03:57.191Z,1024.19
2019-03-24T05:04:57.237Z,1024.23
2019-03-24T05:05:57.283Z,1024.20
2019-03-24T05:06:57.335Z,1024.20
2019-03-24T05:07:57.399Z,1024.18
2019-03-24T05:08:57.470Z,1024.20
2019-03-24T05:09:57.531Z,1024.20
2019-03-24T05:10:57.588Z,1024.20
2019-03-24T05:11:57.644Z,1024.18
2019-03-24T05:12:57.704Z,1024.17
2019-03-24T05:13:57.772Z,1024.18
2019-03-24T05:14:57.838Z,1024.21
2019-03-24T05:15:57.896Z,1024.21
2019-03-24T05:16:57.953Z,1024.18
2019-03-24T05:17:58.018Z,1024.19
2019-03-24T05:18:58.090Z,1024.22
2019-03-24T05:19:58.149Z,1024.23
2019-03-24T05:20:58.204Z,1024.20
2019-03-24T05:21:58.265Z,1024.16
2019-03-24T05:22:58.324Z,1024.16
2019-03-24T05:23:58.397Z,1024.17
2019-03-24T05:24:58.456Z,1024.16
2019-03-24T05:25:58.517Z,1024.14
2019-03-24T05:26:58.573Z,1024.14
2019-03-24T05:27:58.636Z,1024.11
2019-03-24T05:28:58.697Z,1024.10
2019-03-24T05:29:58.766Z,1024.09
2019-03-24T05:30:58.825Z,1024.10
2019-03-24T05:31:58.881Z,1024.11
2019-03-24T05:32:58.941Z,1024.14
2019-03-24T05:33:59.006Z,1024.14
2019-03-24T05:34:59.077Z,1024.15
2019-03-24T05:35:59.133Z,1024.14
2019-03-24T05:36:59.189Z,1024.14
2019-03-24T05:37:59.250Z,1024.12
2019-03-24T05:38:59.326Z,1024.11
2019-03-24T05:39:59.382Z,1024.10
2019-03-24T05:40:59.441Z,1024.12
2019-03-24T05:41:59.502Z,1024.10
2019-03-24T05:42:59.557Z,1024.17
2019-03-24T05:43:59.623Z,1024.12
2019-03-24T05:44:59.690Z,1024.10
2019-03-24T05:45:59.754Z,1024.11
2019-03-24T05:46:59.805Z,1024.09
2019-03-24T05:47:59.872Z,1024.10
2019-03-24T05:48:59.942Z,1024.10
2019-03-24T05:50:00.001Z,1024.14
2019-03-24T05:51:00.061Z,1024.13
2019-03-24T05:52:00.114Z,1024.09
2019-03-24T05:53:00.175Z,1024.11
2019-03-24T05:54:00.242Z,1024.10
2019-03-24T05:55:00.397Z,1024.11
2019-03-24T05:56:00.462Z,1024.07
2019-03-24T05:57:00.423Z,1024.08
2019-03-24T05:58:00.486Z,1024.09
2019-03-24T05:59:00.550Z,1024.07
2019-03-24T06:00:00.617Z,1024.06
2019-03-24T06:01:00.681Z,1024.10
2019-03-24T06:02:00.738Z,1024.11
2019-03-24T06:03:00.795Z,1024.14
2019-03-24T06:04:00.855Z,1024.16
2019-03-24T06:05:00.920Z,1024.19
2019-03-24T06:06:00.987Z,1024.18
2019-03-24T06:07:01.047Z,1024.18
2019-03-24T06:08:01.102Z,1024.17
2019-03-24T06:09:01.175Z,1024.20
2019-03-24T06:10:01.231Z,1024.19
2019-03-24T06:11:01.307Z,1024.18
2019-03-24T06:12:01.351Z,1024.19
2019-03-24T06:13:01.411Z,1024.24
2019-03-24T06:14:01.471Z,1024.24
2019-03-24T06:15:01.535Z,1024.24
2019-03-24T06:16:01.608Z,1024.29
2019-03-24T06:17:01.666Z,1024.29
2019-03-24T06:18:01.719Z,1024.28
2019-03-24T06:19:01.779Z,1024.28
2019-03-24T06:20:01.844Z,1024.28
2019-03-24T06:21:01.911Z,1024.28
2019-03-24T06:22:01.971Z,1024.26
2019-03-24T06:23:02.032Z,1024.29
2019-03-24T06:24:02.106Z,1024.30
2019-03-24T06:25:02.152Z,1024.31
2019-03-24T06:26:02.311Z,1024.31
2019-03-24T06:27:02.276Z,1024.30
2019-03-24T06:28:02.336Z,1024.32
2019-03-24T06:29:02.395Z,1024.28
2019-03-24T06:30:02.460Z,1024.30
2019-03-24T06:31:02.528Z,1024.28
2019-03-24T06:32:02.590Z,1024.29
2019-03-24T06:33:02.644Z,1024.29
2019-03-24T06:34:02.708Z,1024.31
2019-03-24T06:35:02.768Z,1024.30
2019-03-24T06:36:02.833Z,1024.27
2019-03-24T06:37:02.896Z,1024.27
2019-03-24T06:38:02.953Z,1024.26
2019-03-24T06:39:03.015Z,1024.27
2019-03-24T06:40:03.073Z,1024.24
2019-03-24T06:41:03.136Z,1024.27
2019-03-24T06:42:03.216Z,1024.25
2019-03-24T06:43:03.263Z,1024.22
2019-03-24T06:44:03.321Z,1024.24
2019-03-24T06:45:03.381Z,1024.24
2019-03-24T06:46:03.444Z,1024.25
2019-03-24T06:47:03.513Z,1024.22
2019-03-24T06:48:03.575Z,1024.27
2019-03-24T06:49:03.649Z,1024.23
2019-03-24T06:50:03.689Z,1024.23
2019-03-24T06:51:03.750Z,1024.23
2019-03-24T06:52:03.821Z,1024.19
2019-03-24T06:53:03.881Z,1024.21
2019-03-24T06:54:03.933Z,1024.16
2019-03-24T06:55:03.997Z,1024.17
2019-03-24T06:56:04.057Z,1024.17
2019-03-24T06:57:04.137Z,1024.14
2019-03-24T06:58:04.182Z,1024.18
2019-03-24T06:59:04.241Z,1024.15
2019-03-24T07:00:04.301Z,1024.15
2019-03-24T07:01:04.365Z,1024.13
2019-03-24T07:02:04.434Z,1024.17
2019-03-24T07:03:04.494Z,1024.17
2019-03-24T07:04:04.550Z,1024.13
2019-03-24T07:05:04.609Z,1024.14
2019-03-24T07:06:04.671Z,1024.13
2019-03-24T07:07:04.742Z,1024.16
2019-03-24T07:08:04.802Z,1024.07
2019-03-24T07:09:04.858Z,1024.12
2019-03-24T07:10:04.925Z,1024.08
2019-03-24T07:11:10.530Z,1024.16
2019-03-24T07:12:05.045Z,1024.11
2019-03-24T07:13:05.114Z,1024.09
2019-03-24T07:14:05.166Z,1024.08
2019-03-24T07:15:05.226Z,1024.08
2019-03-24T07:16:05.287Z,1024.08
2019-03-24T07:17:05.460Z,1024.05
2019-03-24T07:18:08.778Z,1024.08
2019-03-24T07:19:05.475Z,1024.08
2019-03-24T07:20:05.534Z,1024.07
2019-03-24T07:21:05.603Z,1024.05
2019-03-24T07:22:07.307Z,1024.05
2019-03-24T07:23:05.729Z,1024.07
2019-03-24T07:24:05.786Z,1024.02
2019-03-24T07:25:05.853Z,1024.05
2019-03-24T07:26:05.907Z,1024.03
2019-03-24T07:27:05.977Z,1024.02
2019-03-24T07:28:06.035Z,1024.05
2019-03-24T07:29:06.091Z,1024.02
2019-03-24T07:30:06.151Z,1024.01
2019-03-24T07:31:06.218Z,1024.03
2019-03-24T07:32:06.379Z,1024.00
2019-03-24T07:33:06.339Z,1024.00
2019-03-24T07:34:06.400Z,1024.05
2019-03-24T07:35:06.464Z,1024.03
2019-03-24T07:36:06.523Z,1024.00
2019-03-24T07:37:06.591Z,1024.01
2019-03-24T07:38:06.655Z,1023.95
2019-03-24T07:39:06.708Z,1023.98
2019-03-24T07:40:06.772Z,1023.93
2019-03-24T07:41:06.833Z,1023.92
2019-03-24T07:42:06.905Z,1023.92
2019-03-24T07:43:06.967Z,1023.95
2019-03-24T07:44:07.023Z,1023.96
2019-03-24T07:45:07.080Z,1023.93
2019-03-24T07:46:07.144Z,1023.94
2019-03-24T07:47:07.224Z,1024.00
2019-03-24T07:48:07.264Z,1023.98
2019-03-24T07:49:07.328Z,1024.00
2019-03-24T07:50:07.389Z,1023.99
2019-03-24T07:51:07.452Z,1024.00
2019-03-24T07:52:07.524Z,1023.98
2019-03-24T07:53:07.585Z,1024.01
2019-03-24T07:54:07.641Z,1023.97
2019-03-24T07:55:07.701Z,1023.99
2019-03-24T07:56:07.760Z,1023.96
2019-03-24T07:57:07.837Z,1023.94
2019-03-24T07:58:07.889Z,1023.94
2019-03-24T07:59:07.951Z,1023.94
2019-03-24T08:00:08.013Z,1023.93
2019-03-24T08:01:08.073Z,1023.91
2019-03-24T08:02:08.240Z,1023.93
2019-03-24T08:03:08.197Z,1023.95
2019-03-24T08:04:08.261Z,1023.94
2019-03-24T08:05:08.321Z,1023.99
2019-03-24T08:06:08.386Z,1023.91
2019-03-24T08:07:08.457Z,1023.89
2019-03-24T08:08:08.529Z,1023.86
2019-03-24T08:09:08.573Z,1023.87
2019-03-24T08:10:08.633Z,1023.85
2019-03-24T08:11:08.701Z,1023.87
2019-03-24T08:12:08.766Z,1023.84
2019-03-24T08:13:08.837Z,1023.79
2019-03-24T08:14:08.887Z,1023.76
2019-03-24T08:15:08.950Z,1023.78
2019-03-24T08:16:09.016Z,1023.81
2019-03-24T08:17:09.099Z,1023.78
2019-03-24T08:18:09.142Z,1023.80
2019-03-24T08:19:09.200Z,1023.78
2019-03-24T08:20:09.261Z,1023.79
2019-03-24T08:21:09.330Z,1023.78
2019-03-24T08:22:09.394Z,1023.74
2019-03-24T08:23:09.458Z,1023.72
2019-03-24T08:24:09.519Z,1023.77
2019-03-24T08:25:09.578Z,1023.78
2019-03-24T08:26:09.638Z,1023.78
2019-03-24T08:27:09.716Z,1023.75
2019-03-24T08:28:09.778Z,1023.79
2019-03-24T08:29:09.831Z,1023.75
2019-03-24T08:30:09.894Z,1023.75
2019-03-24T08:31:09.958Z,1023.78
2019-03-24T08:32:10.026Z,1023.77
2019-03-24T08:33:10.102Z,1023.77
2019-03-24T08:34:10.148Z,1023.81
2019-03-24T08:35:10.211Z,1023.81
2019-03-24T08:36:10.275Z,1023.82
2019-03-24T08:37:10.355Z,1023.84
2019-03-24T08:38:10.422Z,1023.86
2019-03-24T08:39:10.467Z,1023.93
2019-03-24T08:40:10.531Z,1023.95
2019-03-24T08:41:10.595Z,1023.95
2019-03-24T08:42:10.668Z,1023.98
2019-03-24T08:43:10.742Z,1023.96
2019-03-24T08:44:10.787Z,1023.93
2019-03-24T08:45:10.851Z,1023.96
2019-03-24T08:46:10.915Z,1023.92
2019-03-24T08:47:10.987Z,1024.01
2019-03-24T08:48:11.055Z,1023.98
2019-03-24T08:49:11.108Z,1023.99
2019-03-24T08:50:11.172Z,1023.95
2019-03-24T08:51:11.243Z,1023.97
2019-03-24T08:52:11.304Z,1023.98
2019-03-24T08:53:11.376Z,1023.97
2019-03-24T08:54:11.431Z,1023.99
2019-03-24T08:55:11.495Z,1023.98
2019-03-24T08:56:11.559Z,1024.01
2019-03-24T08:57:11.650Z,1023.98
2019-03-24T08:58:11.696Z,1024.01
2019-03-24T08:59:11.764Z,1024.01
2019-03-24T09:00:11.820Z,1024.01
2019-03-24T09:01:11.886Z,1024.02
2019-03-24T09:02:11.952Z,1024.03
2019-03-24T09:03:12.024Z,1024.04
2019-03-24T09:04:12.084Z,1024.02
2019-03-24T09:05:12.145Z,1024.08
2019-03-24T09:06:12.208Z,1024.11
2019-03-24T09:07:12.272Z,1024.11
2019-03-24T09:08:12.437Z,1024.08
2019-03-24T09:09:12.408Z,1024.05
2019-03-24T09:10:12.468Z,1024.04
2019-03-24T09:11:12.540Z,1024.03
2019-03-24T09:12:12.605Z,1024.03
2019-03-24T09:13:12.672Z,1024.00
2019-03-24T09:14:12.736Z,1024.02
2019-03-24T09:15:12.797Z,1024.05
2019-03-24T09:16:12.864Z,1024.04
2019-03-24T09:17:12.925Z,1023.97
2019-03-24T09:18:12.998Z,1023.94
2019-03-24T09:19:13.085Z,1023.95
2019-03-24T09:20:13.126Z,1023.93
2019-03-24T09:21:13.184Z,1023.95
2019-03-24T09:22:13.258Z,1023.95
2019-03-24T09:23:13.317Z,1023.93
2019-03-24T09:24:13.433Z,1023.95
2019-03-24T09:25:13.445Z,1023.96
2019-03-24T09:26:13.514Z,1023.95
2019-03-24T09:27:13.582Z,1023.97
2019-03-24T09:28:13.641Z,1023.98
2019-03-24T09:29:13.722Z,1024.01
2019-03-24T09:30:13.782Z,1024.07
2019-03-24T09:31:13.854Z,1024.24
2019-03-24T09:32:13.916Z,1024.12
2019-03-24T09:33:13.971Z,1024.09
2019-03-24T09:34:14.042Z,1024.08
2019-03-24T09:35:14.113Z,1024.07
2019-03-24T09:36:14.167Z,1024.12
2019-03-24T09:37:14.234Z,1024.04
2019-03-24T09:38:14.298Z,1024.07
2019-03-24T09:39:14.460Z,1024.07
2019-03-24T09:40:14.434Z,1024.07
2019-03-24T09:41:14.493Z,1024.08
2019-03-24T09:42:14.578Z,1024.08
2019-03-24T09:43:14.628Z,1024.11
2019-03-24T09:44:14.694Z,1024.10
2019-03-24T09:45:14.762Z,1024.11
2019-03-24T09:46:14.822Z,1024.14
2019-03-24T09:47:14.898Z,1024.08
2019-03-24T09:48:14.959Z,1024.10
2019-03-24T09:49:15.026Z,1024.05
2019-03-24T09:50:15.090Z,1024.13
2019-03-24T09:51:15.150Z,1024.10
2019-03-24T09:52:15.214Z,1024.11
2019-03-24T09:53:15.286Z,1024.13
2019-03-24T09:54:15.584Z,1024.15
2019-03-24T09:55:15.411Z,1024.12
2019-03-24T09:56:15.482Z,1024.06
2019-03-24T09:57:15.544Z,1024.06
2019-03-24T09:58:15.606Z,1024.08
2019-03-24T09:59:15.683Z,1024.08
2019-03-24T10:00:15.743Z,1024.08
2019-03-24T10:01:15.803Z,1024.14
2019-03-24T10:02:15.872Z,1024.15
2019-03-24T10:03:15.935Z,1024.13
2019-03-24T10:04:16.008Z,1024.13
2019-03-24T10:05:16.072Z,1024.13
2019-03-24T10:06:16.136Z,1024.15
2019-03-24T10:07:16.195Z,1024.12
2019-03-24T10:08:16.259Z,1024.12
2019-03-24T10:09:16.327Z,1024.10
2019-03-24T10:10:16.411Z,1024.10
2019-03-24T10:11:16.462Z,1024.05
2019-03-24T10:12:16.523Z,1024.06
2019-03-24T10:13:16.591Z,1024.06
2019-03-24T10:14:16.656Z,1024.10
2019-03-24T10:15:16.736Z,1024.04
2019-03-24T10:16:16.789Z,1024.09
2019-03-24T10:17:16.852Z,1024.11
2019-03-24T10:18:16.911Z,1024.11
2019-03-24T10:19:16.980Z,1024.10
2019-03-24T10:20:17.051Z,1024.10
2019-03-24T10:21:17.119Z,1024.07
2019-03-24T10:22:17.178Z,1024.10
2019-03-24T10:23:17.239Z,1024.05
2019-03-24T10:24:17.304Z,1024.05
2019-03-24T10:25:17.380Z,1024.10
2019-03-24T10:26:17.444Z,1024.11
2019-03-24T10:27:17.506Z,1024.03
2019-03-24T10:28:17.568Z,1024.07
2019-03-24T10:29:17.632Z,1024.02
2019-03-24T10:30:17.716Z,1024.06
2019-03-24T10:31:17.774Z,1023.99
2019-03-24T10:32:17.833Z,1023.98
2019-03-24T10:33:17.899Z,1023.98
2019-03-24T10:34:17.965Z,1023.98
2019-03-24T10:35:18.045Z,1023.97
2019-03-24T10:36:18.097Z,1024.00
2019-03-24T10:37:18.161Z,1024.03
2019-03-24T10:38:18.229Z,1024.08
2019-03-24T10:39:18.292Z,1024.07
2019-03-24T10:40:28.110Z,1024.04
2019-03-24T10:41:18.430Z,1024.06
2019-03-24T10:42:18.499Z,1024.11
2019-03-24T10:43:18.557Z,1024.11
2019-03-24T10:44:18.629Z,1024.08
2019-03-24T10:45:18.697Z,1024.03
2019-03-24T10:46:18.767Z,1023.97
2019-03-24T10:47:18.832Z,1023.98
2019-03-24T10:48:18.889Z,1023.98
2019-03-24T10:49:24.747Z,1024.00
2019-03-24T10:50:19.029Z,1023.99
2019-03-24T10:51:19.097Z,1023.90
2019-03-24T10:52:19.161Z,1023.94
2019-03-24T10:53:19.221Z,1023.93
2019-03-24T10:54:19.295Z,1023.91
2019-03-24T10:55:19.364Z,1023.86
2019-03-24T10:56:19.436Z,1023.82
2019-03-24T10:57:19.490Z,1023.88
2019-03-24T10:58:19.554Z,1023.82
2019-03-24T10:59:19.626Z,1023.84
2019-03-24T11:00:19.694Z,1023.75
2019-03-24T11:01:19.762Z,1023.75
2019-03-24T11:02:19.827Z,1023.71
2019-03-24T11:03:19.890Z,1023.68
2019-03-24T11:04:19.955Z,1023.63
2019-03-24T11:05:20.027Z,1023.65
2019-03-24T11:06:20.094Z,1023.57
2019-03-24T11:07:20.158Z,1023.60
2019-03-24T11:08:20.226Z,1023.54
2019-03-24T11:09:20.288Z,1023.53
2019-03-24T11:10:20.362Z,1023.50
2019-03-24T11:11:20.443Z,1023.46
2019-03-24T11:12:20.487Z,1023.39
2019-03-24T11:13:20.555Z,1023.40
2019-03-24T11:14:20.619Z,1023.39
2019-03-24T11:15:20.699Z,1023.38
2019-03-24T11:16:20.760Z,1023.32
2019-03-24T11:17:20.834Z,1023.32
2019-03-24T11:18:20.887Z,1023.30
2019-03-24T11:19:20.951Z,1023.28
2019-03-24T11:20:21.015Z,1023.26
2019-03-24T11:21:21.415Z,1023.20
2019-03-24T11:22:21.155Z,1023.15
2019-03-24T11:23:21.224Z,1023.18
2019-03-24T11:24:21.372Z,1023.18
2019-03-24T11:25:21.350Z,1023.20
2019-03-24T11:26:21.415Z,1023.23
2019-03-24T11:27:21.496Z,1023.31
2019-03-24T11:28:21.548Z,1023.34
2019-03-24T11:29:21.616Z,1023.37
2019-03-24T11:30:21.688Z,1023.39
2019-03-24T11:31:21.747Z,1023.32
2019-03-24T11:32:21.823Z,1023.35
2019-03-24T11:33:21.892Z,1023.37
2019-03-24T11:34:21.948Z,1023.40
2019-03-24T11:35:22.016Z,1023.37
2019-03-24T11:36:22.079Z,1023.39
2019-03-24T11:37:22.250Z,1023.28
2019-03-24T11:38:22.225Z,1023.27
2019-03-24T11:39:22.280Z,1023.24
2019-03-24T11:40:22.350Z,1023.19
2019-03-24T11:41:22.416Z,1023.11
2019-03-24T11:42:22.488Z,1023.14
2019-03-24T11:43:22.556Z,1023.13
2019-03-24T11:44:22.616Z,1023.16
2019-03-24T11:45:22.680Z,1023.10
2019-03-24T11:46:22.748Z,1023.08
2019-03-24T11:47:26.819Z,1023.07
2019-03-24T11:48:22.891Z,1023.09
2019-03-24T11:49:22.958Z,1023.13
2019-03-24T11:50:23.017Z,1023.11
2019-03-24T11:51:23.086Z,1023.13
2019-03-24T11:52:23.196Z,1023.12
2019-03-24T11:53:23.218Z,1023.14
2019-03-24T11:54:23.281Z,1023.15
2019-03-24T11:55:23.348Z,1023.11
2019-03-24T11:56:23.425Z,1023.07
2019-03-24T11:57:23.489Z,1023.04
2019-03-24T11:58:23.566Z,1023.06
2019-03-24T11:59:23.643Z,1023.10
2019-03-24T12:00:23.685Z,1023.08
2019-03-24T12:01:23.753Z,1023.09
2019-03-24T12:02:23.825Z,1023.09
2019-03-24T12:03:25.428Z,1023.07
2019-03-24T12:04:23.954Z,1023.12
2019-03-24T12:05:24.021Z,1023.10
2019-03-24T12:06:24.153Z,1023.06